createdAt,value
2018-02-14T00:01:03.256Z,68.37
2018-02-14T00:03:31.644Z,68.46
2018-02-14T00:05:59.966Z,68.83
2018-02-14T00:08:29.041Z,68.58
2018-02-14T00:10:57.411Z,68.13
2018-02-14T00:13:26.680Z,67.50
2018-02-14T00:15:55.421Z,67.31
2018-02-14T00:18:23.796Z,67.77
2018-02-14T00:20:52.493Z,68.19
2018-02-14T00:23:20.872Z,67.63
2018-02-14T00:25:49.248Z,67.98
2018-02-14T00:28:17.547Z,68.16
2018-02-14T00:30:46.903Z,68.47
2018-02-14T00:33:16.006Z,68.30
2018-02-14T00:35:45.241Z,68.48
2018-02-14T00:38:13.573Z,68.86
2018-02-14T00:40:42.879Z,68.64
2018-02-14T00:43:12.083Z,69.12
2018-02-14T00:45:40.611Z,68.48
2018-02-14T00:48:09.917Z,69.12
2018-02-14T00:50:38.231Z,68.98
2018-02-14T00:53:07.863Z,69.10
2018-02-14T00:55:37.216Z,68.95
2018-02-14T00:58:05.820Z,68.92
2018-02-14T01:00:34.670Z,68.46
2018-02-14T01:03:02.995Z,69.04
2018-02-14T01:05:31.347Z,68.73
2018-02-14T01:07:59.713Z,68.39
2018-02-14T01:10:28.123Z,67.89
2018-02-14T01:12:57.430Z,67.77
2018-02-14T01:15:27.037Z,68.11
2018-02-14T01:17:55.712Z,67.71
2018-02-14T01:20:29.653Z,68.08
2018-02-14T01:22:58.755Z,67.67
2018-02-14T01:25:27.096Z,68.61
2018-02-14T01:27:55.450Z,68.54
2018-02-14T01:30:23.761Z,67.78
2018-02-14T01:32:52.080Z,68.72
2018-02-14T01:35:20.915Z,68.49
2018-02-14T01:37:49.248Z,68.03
2018-02-14T01:40:17.591Z,68.13
2018-02-14T01:42:46.241Z,67.88
2018-02-14T01:45:14.608Z,68.63
2018-02-14T01:47:42.948Z,68.46
2018-02-14T01:50:12.098Z,68.90
2018-02-14T01:52:40.443Z,69.54
2018-02-14T01:55:08.799Z,68.95
2018-02-14T01:57:38.419Z,68.60
2018-02-14T02:00:07.501Z,69.28
2018-02-14T02:02:35.838Z,69.55
2018-02-14T02:05:04.254Z,69.34
2018-02-14T02:07:32.581Z,69.41
2018-02-14T02:10:00.932Z,69.67
2018-02-14T02:12:30.084Z,69.83
2018-02-14T02:14:58.502Z,69.68
2018-02-14T02:17:26.860Z,70.38
2018-02-14T02:19:55.566Z,69.73
2018-02-14T02:22:23.895Z,69.56
2018-02-14T02:24:52.210Z,70.34
2018-02-14T02:27:20.552Z,69.83
2018-02-14T02:29:48.904Z,69.37
2018-02-14T02:32:17.401Z,68.42
2018-02-14T02:34:45.749Z,68.61
2018-02-14T02:37:14.965Z,68.49
2018-02-14T02:42:55.721Z,68.95
2018-02-14T02:45:24.065Z,68.63
2018-02-14T02:47:52.401Z,69.33
2018-02-14T02:50:20.960Z,68.08
2018-02-14T02:52:49.539Z,68.37
2018-02-14T02:55:17.837Z,68.74
2018-02-14T02:57:47.272Z,68.36
2018-02-14T03:00:15.980Z,67.98
2018-02-14T03:02:44.610Z,68.10
2018-02-14T03:05:13.136Z,69.18
2018-02-14T03:07:41.623Z,69.31
2018-02-14T03:10:10.236Z,68.88
2018-02-14T03:12:38.596Z,69.20
2018-02-14T03:15:07.057Z,69.07
2018-02-14T03:17:35.519Z,68.89
2018-02-14T03:20:03.849Z,68.93
2018-02-14T03:22:32.453Z,69.08
2018-02-14T03:25:00.783Z,69.34
2018-02-14T03:27:29.115Z,69.39
2018-02-14T03:29:58.354Z,70.04
2018-02-14T03:32:26.812Z,69.61
2018-02-14T03:34:55.255Z,70.04
2018-02-14T03:37:23.600Z,69.93
2018-02-14T03:39:51.924Z,70.24
2018-02-14T03:42:20.250Z,70.29
2018-02-14T03:44:49.216Z,70.15
2018-02-14T03:47:17.508Z,70.11
2018-02-14T03:49:45.846Z,70.59
2018-02-14T03:52:14.227Z,70.40
2018-02-14T03:54:42.550Z,70.15
2018-02-14T03:57:10.858Z,70.40
2018-02-14T03:59:39.234Z,70.40
2018-02-14T04:02:07.583Z,70.50
2018-02-14T04:04:35.905Z,69.96
2018-02-14T04:07:04.628Z,69.79
2018-02-14T04:09:33.722Z,69.85
2018-02-14T04:12:02.824Z,70.18
2018-02-14T04:14:31.962Z,69.31
2018-02-14T04:17:00.304Z,69.92
2018-02-14T04:19:28.630Z,70.34
2018-02-14T04:21:56.961Z,69.68
2018-02-14T04:24:26.059Z,71.00
2018-02-14T04:26:55.126Z,71.01
2018-02-14T04:29:23.648Z,70.81
2018-02-14T04:31:52.043Z,70.68
2018-02-14T04:34:20.346Z,70.16
2018-02-14T04:36:48.665Z,70.98
2018-02-14T04:39:17.029Z,72.50
2018-02-14T04:41:46.129Z,72.57
2018-02-14T04:44:14.654Z,73.05
2018-02-14T04:46:42.999Z,73.34
2018-02-14T04:49:12.103Z,72.65
2018-02-14T04:51:41.684Z,72.47
2018-02-14T04:54:10.013Z,72.25
2018-02-14T04:56:38.388Z,71.92
2018-02-14T04:59:06.750Z,71.93
2018-02-14T05:01:35.825Z,71.35
2018-02-14T05:04:04.153Z,71.19
2018-02-14T05:06:32.484Z,70.54
2018-02-14T05:09:01.559Z,70.20
2018-02-14T05:11:29.897Z,70.87
2018-02-14T05:13:58.336Z,70.72
2018-02-14T05:16:26.666Z,71.26
2018-02-14T05:18:55.045Z,71.01
2018-02-14T05:21:23.519Z,71.62
2018-02-14T05:23:51.845Z,71.59
2018-02-14T05:26:20.183Z,71.55
2018-02-14T05:28:48.543Z,70.93
2018-02-14T05:31:16.864Z,70.80
2018-02-14T05:33:45.957Z,70.95
2018-02-14T05:36:14.702Z,71.51
2018-02-14T05:38:43.047Z,71.24
2018-02-14T05:41:11.382Z,71.26
2018-02-14T05:43:39.713Z,70.85
2018-02-14T05:46:08.819Z,70.78
2018-02-14T05:48:37.923Z,70.89
2018-02-14T05:51:06.256Z,71.05
2018-02-14T05:53:34.633Z,70.94
2018-02-14T05:56:02.940Z,70.66
2018-02-14T05:58:31.487Z,70.76
2018-02-14T06:00:59.819Z,71.00
2018-02-14T06:03:28.128Z,71.34
2018-02-14T06:05:56.476Z,71.66
2018-02-14T06:08:25.584Z,71.61
2018-02-14T06:10:53.914Z,71.72
2018-02-14T06:13:22.275Z,71.68
2018-02-14T06:15:50.644Z,71.34
2018-02-14T06:18:18.965Z,71.58
2018-02-14T06:20:48.469Z,71.14
2018-02-14T06:23:16.793Z,71.30
2018-02-14T06:25:45.109Z,70.72
2018-02-14T06:28:13.479Z,70.62
2018-02-14T06:30:41.826Z,71.07
2018-02-14T06:33:10.148Z,71.40
2018-02-14T06:35:38.636Z,70.50
2018-02-14T06:38:06.986Z,70.59
2018-02-14T06:40:35.294Z,70.06
2018-02-14T06:43:03.936Z,70.35
2018-02-14T06:45:32.295Z,70.12
2018-02-14T06:48:00.640Z,70.33
2018-02-14T06:50:29.008Z,70.29
2018-02-14T06:52:57.349Z,70.76
2018-02-14T06:55:25.714Z,69.49
2018-02-14T06:57:54.028Z,69.74
2018-02-14T07:00:22.325Z,69.38
2018-02-14T07:02:50.676Z,69.22
2018-02-14T07:05:19.516Z,69.04
2018-02-14T07:07:47.897Z,69.20
2018-02-14T07:10:16.246Z,66.77
2018-02-14T07:12:44.593Z,63.46
2018-02-14T07:15:12.937Z,59.96
2018-02-14T07:17:42.049Z,56.23
2018-02-14T07:20:10.538Z,55.49
2018-02-14T07:22:39.069Z,52.95
2018-02-14T07:25:07.411Z,51.23
2018-02-14T07:27:36.292Z,48.83
2018-02-14T07:30:04.600Z,46.86
2018-02-14T07:32:32.925Z,45.62
2018-02-14T07:35:02.013Z,43.88
2018-02-14T07:37:31.130Z,43.09
2018-02-14T07:39:59.443Z,43.03
2018-02-14T07:42:28.043Z,41.42
2018-02-14T07:44:56.373Z,39.47
2018-02-14T07:47:24.684Z,37.93
2018-02-14T07:49:53.226Z,35.42
2018-02-14T07:52:21.556Z,35.07
2018-02-14T07:54:49.863Z,34.00
2018-02-14T07:57:18.960Z,33.14
2018-02-14T07:59:48.054Z,32.32
2018-02-14T08:02:17.171Z,30.53
2018-02-14T08:04:45.534Z,29.22
2018-02-14T08:07:13.868Z,28.89
2018-02-14T08:09:42.957Z,30.57
2018-02-14T08:12:11.856Z,30.10
2018-02-14T08:14:40.210Z,31.05
2018-02-14T08:17:08.550Z,31.16
2018-02-14T08:19:36.927Z,30.01
2018-02-14T08:22:05.287Z,29.06
2018-02-14T08:24:33.609Z,29.08
2018-02-14T08:27:01.991Z,27.35
2018-02-14T08:29:30.342Z,27.04
2018-02-14T08:31:58.667Z,26.06
2018-02-14T08:34:27.320Z,24.44
2018-02-14T08:36:55.784Z,25.68
2018-02-14T08:39:25.208Z,24.93
2018-02-14T08:41:54.304Z,23.31
2018-02-14T08:44:23.384Z,23.27
2018-02-14T08:46:51.720Z,23.20
2018-02-14T08:49:20.087Z,23.08
2018-02-14T08:51:48.415Z,22.32
2018-02-14T08:54:16.777Z,21.05
2018-02-14T08:56:45.490Z,21.97
2018-02-14T08:59:13.816Z,22.95
2018-02-14T09:01:42.131Z,23.81
2018-02-14T09:04:10.498Z,26.43
2018-02-14T09:06:38.861Z,23.36
2018-02-14T09:09:07.188Z,22.96
2018-02-14T09:11:36.284Z,22.36
2018-02-14T09:14:05.376Z,23.19
2018-02-14T09:16:34.466Z,21.64
2018-02-14T09:19:04.068Z,23.98
2018-02-14T09:21:32.487Z,22.82
2018-02-14T09:24:00.831Z,23.32
2018-02-14T09:26:29.214Z,21.79
2018-02-14T09:28:57.553Z,22.80
2018-02-14T09:31:25.905Z,20.67
2018-02-14T09:33:54.277Z,20.16
2018-02-14T09:36:22.605Z,19.27
2018-02-14T09:38:50.935Z,19.04
2018-02-14T09:41:19.380Z,21.86
2018-02-14T09:43:47.721Z,20.91
2018-02-14T09:46:16.198Z,21.54
2018-02-14T09:48:44.575Z,19.95
2018-02-14T09:51:12.911Z,19.18
2018-02-14T09:53:42.001Z,20.73
2018-02-14T09:56:11.108Z,20.29
2018-02-14T09:58:39.420Z,21.11
2018-02-14T10:01:07.776Z,20.58
2018-02-14T10:03:37.384Z,20.56
2018-02-14T10:06:05.723Z,20.52
2018-02-14T10:08:35.826Z,20.04
2018-02-14T10:11:04.145Z,19.57
2018-02-14T10:13:33.243Z,19.97
2018-02-14T10:16:02.427Z,19.18
2018-02-14T10:18:30.747Z,19.21
2018-02-14T10:20:59.061Z,20.11
2018-02-14T10:23:27.939Z,18.52
2018-02-14T10:25:56.258Z,18.82
2018-02-14T10:28:25.362Z,19.97
2018-02-14T10:30:54.986Z,19.20
2018-02-14T10:33:23.339Z,17.54
2018-02-14T10:35:51.683Z,18.93
2018-02-14T10:38:20.022Z,19.94
2018-02-14T10:40:48.379Z,19.87
2018-02-14T10:43:17.497Z,19.92
2018-02-14T10:45:47.105Z,20.62
2018-02-14T10:48:15.453Z,20.23
2018-02-14T10:50:43.833Z,19.15
2018-02-14T10:53:12.594Z,21.34
2018-02-14T10:55:40.983Z,20.99
2018-02-14T10:58:09.311Z,21.12
2018-02-14T11:00:43.208Z,22.83
2018-02-14T11:03:17.969Z,21.35
2018-02-14T11:08:54.324Z,21.16
2018-02-14T11:11:23.825Z,20.92
2018-02-14T11:13:52.928Z,20.84
2018-02-14T11:16:22.101Z,21.19
2018-02-14T11:18:50.705Z,20.69
2018-02-14T11:21:19.830Z,20.47
2018-02-14T11:23:48.210Z,20.49
2018-02-14T11:26:16.554Z,18.73
2018-02-14T11:28:45.691Z,20.10
2018-02-14T11:31:14.071Z,19.94
2018-02-14T11:33:42.720Z,20.08
2018-02-14T11:36:11.122Z,20.58
2018-02-14T11:38:39.470Z,21.32
2018-02-14T11:41:08.622Z,18.83
2018-02-14T11:43:36.991Z,19.39
2018-02-14T11:46:05.322Z,20.98
2018-02-14T11:48:33.689Z,21.00
2018-02-14T11:51:02.842Z,20.63
2018-02-14T11:53:31.427Z,21.26
2018-02-14T11:56:00.539Z,19.91
2018-02-14T11:58:28.860Z,20.46
2018-02-14T12:00:57.199Z,20.32
2018-02-14T12:03:25.587Z,19.93
2018-02-14T12:05:53.969Z,20.04
2018-02-14T12:08:22.526Z,20.37
2018-02-14T12:10:50.918Z,19.86
2018-02-14T12:13:19.366Z,19.86
2018-02-14T12:15:47.747Z,18.60
2018-02-14T12:18:16.734Z,18.21
2018-02-14T12:20:45.835Z,19.92
2018-02-14T12:23:14.967Z,19.37
2018-02-14T12:25:43.357Z,18.32
2018-02-14T12:28:11.699Z,17.09
2018-02-14T12:30:40.097Z,18.28
2018-02-14T12:33:08.957Z,18.85
2018-02-14T12:35:37.310Z,18.32
2018-02-14T12:38:06.441Z,19.22
2018-02-14T12:40:34.863Z,19.71
2018-02-14T12:43:03.189Z,19.63
2018-02-14T12:45:32.309Z,19.66
2018-02-14T12:48:00.700Z,20.41
2018-02-14T12:50:29.092Z,19.85
2018-02-14T12:52:57.457Z,20.48
2018-02-14T12:55:25.837Z,20.49
2018-02-14T12:57:54.165Z,20.11
2018-02-14T13:00:22.504Z,22.61
2018-02-14T13:02:51.338Z,21.72
2018-02-14T13:05:19.664Z,21.13
2018-02-14T13:07:48.009Z,20.00
2018-02-14T13:10:17.397Z,21.33
2018-02-14T13:12:46.491Z,22.56
2018-02-14T13:15:14.853Z,21.13
2018-02-14T13:17:43.206Z,21.14
2018-02-14T13:20:11.528Z,21.17
2018-02-14T13:22:40.673Z,21.80
2018-02-14T13:25:09.830Z,21.70
2018-02-14T13:27:38.960Z,21.17
2018-02-14T13:30:07.348Z,21.67
2018-02-14T13:32:35.726Z,22.21
2018-02-14T13:35:04.105Z,21.47
2018-02-14T13:37:32.481Z,21.87
2018-02-14T13:40:00.901Z,19.61
2018-02-14T13:42:29.239Z,18.60
2018-02-14T13:44:57.577Z,18.78
2018-02-14T13:47:27.240Z,21.39
2018-02-14T13:49:55.627Z,22.46
2018-02-14T13:52:24.024Z,23.39
2018-02-14T13:54:52.389Z,22.68
2018-02-14T13:57:20.744Z,23.67
2018-02-14T13:59:49.079Z,23.22
2018-02-14T14:02:17.553Z,22.86
2018-02-14T14:04:45.900Z,23.42
2018-02-14T14:07:14.281Z,22.47
2018-02-14T14:09:42.930Z,22.67
2018-02-14T14:12:11.282Z,23.79
2018-02-14T14:14:39.814Z,23.82
2018-02-14T14:17:08.194Z,22.07
2018-02-14T14:19:36.536Z,22.42
2018-02-14T14:22:05.663Z,22.26
2018-02-14T14:24:34.509Z,22.95
2018-02-14T14:27:02.853Z,23.64
2018-02-14T14:29:31.221Z,25.02
2018-02-14T14:31:59.840Z,25.09
2018-02-14T14:34:28.212Z,25.47
2018-02-14T14:36:56.548Z,25.43
2018-02-14T14:39:24.928Z,24.84
2018-02-14T14:41:53.295Z,25.60
2018-02-14T14:44:21.673Z,26.09
2018-02-14T14:46:50.024Z,26.60
2018-02-14T14:49:18.356Z,27.37
2018-02-14T14:51:46.703Z,27.22
2018-02-14T14:54:15.349Z,27.38
2018-02-14T14:56:45.298Z,27.56
2018-02-14T14:59:14.434Z,28.23
2018-02-14T15:01:43.068Z,27.17
2018-02-14T15:04:12.192Z,28.19
2018-02-14T15:06:40.523Z,28.49
2018-02-14T15:09:08.911Z,28.69
2018-02-14T15:11:37.322Z,28.91
2018-02-14T15:14:05.628Z,28.87
2018-02-14T15:16:34.493Z,28.93
2018-02-14T15:19:02.824Z,28.77
2018-02-14T15:21:31.133Z,29.70
2018-02-14T15:24:00.303Z,29.71
2018-02-14T15:26:28.667Z,31.13
2018-02-14T15:28:57.765Z,32.50
2018-02-14T15:31:26.131Z,33.38
2018-02-14T15:33:54.457Z,32.22
2018-02-14T15:36:22.789Z,33.23
2018-02-14T15:38:51.673Z,32.70
2018-02-14T15:41:20.119Z,32.38
2018-02-14T15:43:48.443Z,32.96
2018-02-14T15:46:16.863Z,32.67
2018-02-14T15:48:45.168Z,33.73
2018-02-14T15:51:13.466Z,34.42
2018-02-14T15:53:41.816Z,35.76
2018-02-14T15:56:10.896Z,36.25
2018-02-14T15:58:39.431Z,37.43
2018-02-14T16:01:08.144Z,37.71
2018-02-14T16:03:36.438Z,38.12
2018-02-14T16:06:04.769Z,38.69
2018-02-14T16:08:33.094Z,39.38
2018-02-14T16:11:01.433Z,40.13
2018-02-14T16:13:30.445Z,40.53
2018-02-14T16:15:59.252Z,40.92
2018-02-14T16:18:27.552Z,41.63
2018-02-14T16:20:55.925Z,41.83
2018-02-14T16:23:25.725Z,41.68
2018-02-14T16:25:54.070Z,41.75
2018-02-14T16:28:22.435Z,42.37
2018-02-14T16:30:50.807Z,42.61
2018-02-14T16:33:19.145Z,42.63
2018-02-14T16:35:48.251Z,42.57
2018-02-14T16:38:17.369Z,43.13
2018-02-14T16:40:45.764Z,43.44
2018-02-14T16:43:14.096Z,43.56
2018-02-14T16:45:43.522Z,43.56
2018-02-14T16:48:11.870Z,43.29
2018-02-14T16:50:40.223Z,43.60
2018-02-14T16:53:09.179Z,44.03
2018-02-14T16:55:37.557Z,43.95
2018-02-14T16:58:06.655Z,44.27
2018-02-14T17:00:35.029Z,44.92
2018-02-14T17:03:03.384Z,45.31
2018-02-14T17:05:31.718Z,45.13
2018-02-14T17:08:00.274Z,45.30
2018-02-14T17:10:28.610Z,45.35
2018-02-14T17:12:56.950Z,45.46
2018-02-14T17:15:25.311Z,45.46
2018-02-14T17:17:53.659Z,45.74
2018-02-14T17:20:22.021Z,46.08
2018-02-14T17:22:50.434Z,46.51
2018-02-14T17:25:18.757Z,46.94
2018-02-14T17:27:47.120Z,47.36
2018-02-14T17:30:16.184Z,47.54
2018-02-14T17:32:44.513Z,47.78
2018-02-14T17:35:12.872Z,47.65
2018-02-14T17:37:41.225Z,47.73
2018-02-14T17:40:09.557Z,47.73
2018-02-14T17:42:37.907Z,47.77
2018-02-14T17:45:06.265Z,48.09
2018-02-14T17:47:35.366Z,47.86
2018-02-14T17:50:03.724Z,48.13
2018-02-14T17:52:33.173Z,48.39
2018-02-14T17:55:01.812Z,48.80
2018-02-14T17:57:30.915Z,48.75
2018-02-14T18:00:00.091Z,49.04
2018-02-14T18:02:29.189Z,49.39
2018-02-14T18:04:57.532Z,49.94
2018-02-14T18:07:26.181Z,50.33
2018-02-14T18:09:54.545Z,50.67
2018-02-14T18:12:22.907Z,50.79
2018-02-14T18:14:51.642Z,50.57
2018-02-14T18:17:19.987Z,50.48
2018-02-14T18:19:48.525Z,50.81
2018-02-14T18:22:16.895Z,50.71
2018-02-14T18:24:45.228Z,50.43
2018-02-14T18:27:13.643Z,50.46
2018-02-14T18:29:42.017Z,50.54
2018-02-14T18:32:10.351Z,50.98
2018-02-14T18:34:38.717Z,50.91
2018-02-14T18:37:07.257Z,51.32
2018-02-14T18:39:36.357Z,51.87
2018-02-14T18:42:04.732Z,51.87
2018-02-14T18:44:33.353Z,51.71
2018-02-14T18:47:01.697Z,51.90
2018-02-14T18:49:30.134Z,51.99
2018-02-14T18:51:58.456Z,52.52
2018-02-14T18:54:27.543Z,52.27
2018-02-14T18:56:56.659Z,52.91
2018-02-14T18:59:25.825Z,52.30
2018-02-14T19:01:54.364Z,52.68
2018-02-14T19:04:22.695Z,53.78
2018-02-14T19:06:52.949Z,53.97
2018-02-14T19:09:21.269Z,53.95
2018-02-14T19:11:50.368Z,53.51
2018-02-14T19:14:18.850Z,53.41
2018-02-14T19:16:47.191Z,54.16
2018-02-14T19:19:15.622Z,54.23
2018-02-14T19:21:45.686Z,54.46
2018-02-14T19:24:14.058Z,54.46
2018-02-14T19:26:42.402Z,54.77
2018-02-14T19:29:11.589Z,54.89
2018-02-14T19:31:39.985Z,55.30
2018-02-14T19:34:08.313Z,55.25
2018-02-14T19:36:36.691Z,54.76
2018-02-14T19:39:05.036Z,55.10
2018-02-14T19:41:33.446Z,55.22
2018-02-14T19:44:02.092Z,55.73
2018-02-14T19:46:30.685Z,55.72
2018-02-14T19:48:59.118Z,55.96
2018-02-14T19:51:27.627Z,55.71
2018-02-14T19:53:55.979Z,55.57
2018-02-14T19:56:24.301Z,56.36
2018-02-14T19:58:53.085Z,56.69
2018-02-14T20:01:21.464Z,56.44
2018-02-14T20:03:50.635Z,56.84
2018-02-14T20:06:19.355Z,56.85
2018-02-14T20:08:47.718Z,56.92
2018-02-14T20:11:16.889Z,57.38
2018-02-14T20:13:45.292Z,57.12
2018-02-14T20:16:14.408Z,57.26
2018-02-14T20:18:42.893Z,57.65
2018-02-14T20:21:12.121Z,57.33
2018-02-14T20:23:40.623Z,57.78
2018-02-14T20:26:08.943Z,58.64
2018-02-14T20:28:38.265Z,58.53
2018-02-14T20:31:06.604Z,58.04
2018-02-14T20:33:34.932Z,57.81
2018-02-14T20:36:03.638Z,58.40
2018-02-14T20:38:31.937Z,58.68
2018-02-14T20:41:00.280Z,58.77
2018-02-14T20:43:30.070Z,58.85
2018-02-14T20:45:58.412Z,58.25
2018-02-14T20:48:26.858Z,58.56
2018-02-14T20:50:56.268Z,58.79
2018-02-14T20:53:24.602Z,58.78
2018-02-14T20:55:52.950Z,58.83
2018-02-14T20:58:21.291Z,59.18
2018-02-14T21:00:49.602Z,59.70
2018-02-14T21:03:17.953Z,59.71
2018-02-14T21:05:46.309Z,60.05
2018-02-14T21:08:14.679Z,60.68
2018-02-14T21:10:43.017Z,60.77
2018-02-14T21:13:11.472Z,60.69
2018-02-14T21:15:39.869Z,60.48
2018-02-14T21:18:08.178Z,60.60
2018-02-14T21:20:37.331Z,60.65
2018-02-14T21:23:05.691Z,60.88
2018-02-14T21:25:34.107Z,60.97
2018-02-14T21:28:02.470Z,61.26
2018-02-14T21:30:30.916Z,61.29
2018-02-14T21:32:59.239Z,61.21
2018-02-14T21:35:27.684Z,61.62
2018-02-14T21:37:55.993Z,61.25
2018-02-14T21:40:24.331Z,61.60
2018-02-14T21:42:52.708Z,61.67
2018-02-14T21:45:21.100Z,61.89
2018-02-14T21:47:49.428Z,61.31
2018-02-14T21:50:17.778Z,61.93
2018-02-14T21:52:46.144Z,61.58
2018-02-14T21:55:14.476Z,61.69
2018-02-14T21:57:43.200Z,61.73
2018-02-14T22:00:11.539Z,61.67
2018-02-14T22:02:39.867Z,61.43
2018-02-14T22:05:08.224Z,61.64
2018-02-14T22:07:37.314Z,61.66
2018-02-14T22:10:06.406Z,61.76
2018-02-14T22:12:35.537Z,61.70
2018-02-14T22:15:03.887Z,61.11
2018-02-14T22:17:32.256Z,61.13
2018-02-14T22:20:01.712Z,61.21
2018-02-14T22:22:30.056Z,61.64
2018-02-14T22:24:59.144Z,61.98
2018-02-14T22:27:28.288Z,61.87
2018-02-14T22:29:56.624Z,61.72
2018-02-14T22:32:24.941Z,61.79
2018-02-14T22:34:53.265Z,61.99
2018-02-14T22:37:22.334Z,62.01
2018-02-14T22:39:50.675Z,62.00
2018-02-14T22:42:19.109Z,61.70
2018-02-14T22:44:47.456Z,62.22
2018-02-14T22:47:15.825Z,61.89
2018-02-14T22:49:44.184Z,61.47
2018-02-14T22:52:12.523Z,61.76
2018-02-14T22:54:40.848Z,61.85
2018-02-14T22:57:09.646Z,61.91
2018-02-14T22:59:37.978Z,61.95
2018-02-14T23:02:07.061Z,61.89
2018-02-14T23:04:35.768Z,61.53
2018-02-14T23:07:04.843Z,61.62
2018-02-14T23:09:33.280Z,61.57
2018-02-14T23:12:01.628Z,62.05
2018-02-14T23:14:30.278Z,61.55
2018-02-14T23:16:58.672Z,61.23
2018-02-14T23:19:27.348Z,61.10
2018-02-14T23:21:55.693Z,61.18
2018-02-14T23:24:24.007Z,61.13
2018-02-14T23:26:52.720Z,61.14
2018-02-14T23:29:21.816Z,61.84
2018-02-14T23:31:51.307Z,61.80
2018-02-14T23:34:20.244Z,61.94
2018-02-14T23:36:48.739Z,61.70
2018-02-14T23:39:17.069Z,61.21
2018-02-14T23:41:46.243Z,61.70
2018-02-14T23:44:14.634Z,62.06
2018-02-14T23:46:42.992Z,62.03
2018-02-14T23:49:11.732Z,62.19
2018-02-14T23:51:40.060Z,62.42
2018-02-14T23:54:08.411Z,62.36
2018-02-14T23:56:36.769Z,62.42
2018-02-14T23:59:05.122Z,62.50
